Terminal Aerodrome Forecast
Issued by NWS Amarillo, TX

Home | Current Version | Previous Version | Text Only | Print | Product List | Glossary On
Versions: 1 2 3 4 5 6 7 8 9 10 11 12 13 14 15 16 17 18 19 20 21 22
000
FTUS44 KAMA 062300
TAFAMA
TAF
KAMA 062337Z 0700/0724 20020G30KT P6SM SCT080 SCT200
     FM070200 18015KT P6SM SCT200
     FM072000 17018G25KT P6SM VCTS BKN080CB=

USA.gov is the U.S. government's official web portal to all federal, state and local government web resources and services.